createdAt,value
2018-11-29T00:01:23.532Z,59.00
2018-11-29T00:03:52.628Z,52.30
2018-11-29T00:06:21.585Z,48.60
2018-11-29T00:08:51.940Z,47.20
2018-11-29T00:11:20.896Z,48.00
2018-11-29T00:13:49.810Z,48.20
2018-11-29T00:16:18.785Z,44.53
2018-11-29T00:18:47.700Z,33.20
2018-11-29T00:21:16.618Z,40.97
2018-11-29T00:23:45.567Z,45.83
2018-11-29T00:26:14.477Z,34.30
2018-11-29T00:28:43.956Z,43.40
2018-11-29T00:31:12.923Z,29.83
2018-11-29T00:33:41.884Z,35.67
2018-11-29T00:36:10.894Z,43.23
2018-11-29T00:38:39.862Z,30.23
2018-11-29T00:41:08.832Z,40.00
2018-11-29T00:43:38.168Z,32.80
2018-11-29T00:46:07.100Z,31.63
2018-11-29T00:48:36.000Z,27.27
2018-11-29T00:51:05.109Z,33.50
2018-11-29T00:53:34.042Z,36.30
2018-11-29T00:56:02.993Z,35.63
2018-11-29T00:58:31.907Z,36.50
2018-11-29T01:01:00.856Z,30.00
2018-11-29T01:03:29.782Z,34.30
2018-11-29T01:05:58.729Z,37.30
2018-11-29T01:08:27.642Z,40.50
2018-11-29T01:10:56.570Z,35.20
2018-11-29T01:13:25.499Z,42.50
2018-11-29T01:15:54.491Z,31.90
2018-11-29T01:18:23.406Z,41.33
2018-11-29T01:20:52.380Z,38.13
2018-11-29T01:23:21.344Z,34.33
2018-11-29T01:25:50.290Z,35.93
2018-11-29T01:28:19.208Z,40.27
2018-11-29T01:30:48.863Z,32.60
2018-11-29T01:33:18.178Z,39.03
2018-11-29T01:35:47.106Z,30.77
2018-11-29T01:38:16.029Z,36.00
2018-11-29T01:40:44.978Z,44.07
2018-11-29T01:43:13.937Z,36.53
2018-11-29T01:45:42.877Z,33.90
2018-11-29T01:48:11.812Z,29.30
2018-11-29T01:50:40.741Z,42.43
2018-11-29T01:53:09.705Z,39.57
2018-11-29T01:55:45.023Z,48.73
2018-11-29T01:58:13.997Z,38.97
2018-11-29T02:00:42.928Z,38.70
2018-11-29T02:03:11.899Z,39.10
2018-11-29T02:05:40.840Z,48.33
2018-11-29T02:08:09.762Z,34.13
2018-11-29T02:10:44.015Z,37.43
2018-11-29T02:13:12.941Z,37.57
2018-11-29T02:15:41.877Z,38.10
2018-11-29T02:18:10.818Z,41.83
2018-11-29T02:20:39.752Z,33.57
2018-11-29T02:23:08.693Z,45.83
2018-11-29T02:25:37.649Z,35.93
2018-11-29T02:28:06.641Z,28.93
2018-11-29T02:30:36.425Z,36.77
2018-11-29T02:33:05.487Z,40.27
2018-11-29T02:35:34.689Z,31.40
2018-11-29T02:38:04.437Z,33.27
2018-11-29T02:40:33.350Z,42.00
2018-11-29T02:43:02.321Z,45.83
2018-11-29T02:45:31.269Z,41.83
2018-11-29T02:48:00.196Z,33.40
2018-11-29T02:50:29.434Z,38.23
2018-11-29T02:52:58.228Z,46.40
2018-11-29T02:55:27.184Z,38.67
2018-11-29T02:57:56.112Z,45.90
2018-11-29T03:00:25.024Z,45.33
2018-11-29T03:02:53.961Z,49.30
2018-11-29T03:05:22.883Z,39.40
2018-11-29T03:07:51.844Z,36.57
2018-11-29T03:10:27.325Z,34.83
2018-11-29T03:12:56.274Z,30.83
2018-11-29T03:15:25.233Z,54.83
2018-11-29T03:17:54.189Z,38.80
2018-11-29T03:20:23.106Z,44.33
2018-11-29T03:22:52.105Z,44.20
2018-11-29T03:25:21.023Z,51.47
2018-11-29T03:27:49.968Z,48.30
2018-11-29T03:30:20.731Z,53.93
2018-11-29T03:32:49.660Z,35.90
2018-11-29T03:35:18.626Z,43.17
2018-11-29T03:37:47.531Z,49.43
2018-11-29T03:40:16.946Z,53.63
2018-11-29T03:42:46.107Z,51.03
2018-11-29T03:45:15.721Z,44.83
2018-11-29T03:47:44.900Z,45.80
2018-11-29T03:50:15.733Z,40.43
2018-11-29T03:52:44.690Z,47.20
2018-11-29T03:55:13.637Z,36.53
2018-11-29T03:57:42.570Z,40.90
2018-11-29T04:00:17.450Z,40.30
2018-11-29T04:02:47.260Z,47.47
2018-11-29T04:05:16.170Z,46.43
2018-11-29T04:07:45.139Z,50.60
2018-11-29T04:10:15.086Z,50.33
2018-11-29T04:12:44.034Z,35.60
2018-11-29T04:15:13.973Z,48.97
2018-11-29T04:17:42.962Z,43.47
2018-11-29T04:20:14.847Z,36.07
2018-11-29T04:22:43.890Z,60.40
2018-11-29T04:25:13.835Z,51.90
2018-11-29T04:27:42.779Z,47.80
2018-11-29T04:30:14.492Z,57.57
2018-11-29T04:32:43.489Z,46.47
2018-11-29T04:35:13.196Z,41.33
2018-11-29T04:37:42.113Z,55.63
2018-11-29T04:40:13.114Z,54.80
2018-11-29T04:42:42.135Z,55.10
2018-11-29T04:45:18.508Z,48.23
2018-11-29T04:47:47.601Z,54.60
2018-11-29T04:50:17.235Z,54.67
2018-11-29T04:52:46.265Z,43.67
2018-11-29T04:55:15.230Z,57.40
2018-11-29T04:57:44.190Z,57.40
2018-11-29T05:00:15.851Z,56.77
2018-11-29T05:02:44.950Z,47.87
2018-11-29T05:05:14.189Z,49.10
2018-11-29T05:07:43.179Z,52.43
2018-11-29T05:10:13.146Z,48.23
2018-11-29T05:15:42.200Z,53.43
2018-11-29T05:18:11.181Z,52.97
2018-11-29T05:20:40.159Z,50.60
2018-11-29T05:23:09.238Z,60.73
2018-11-29T05:25:38.324Z,51.33
2018-11-29T05:28:07.323Z,48.60
2018-11-29T05:30:36.284Z,54.90
2018-11-29T05:33:05.400Z,53.60
2018-11-29T05:35:34.429Z,54.10
2018-11-29T05:38:03.351Z,55.93
2018-11-29T05:40:32.339Z,54.20
2018-11-29T05:43:01.261Z,59.77
2018-11-29T05:45:30.243Z,54.87
2018-11-29T05:47:59.228Z,45.67
2018-11-29T05:50:28.233Z,58.90
2018-11-29T05:52:57.145Z,51.63
2018-11-29T05:55:26.681Z,58.00
2018-11-29T05:57:55.675Z,57.53
2018-11-29T06:00:24.663Z,52.30
2018-11-29T06:02:53.607Z,49.57
2018-11-29T06:05:22.550Z,40.40
2018-11-29T06:07:51.495Z,46.80
2018-11-29T06:10:20.526Z,49.87
2018-11-29T06:12:56.163Z,46.80
2018-11-29T06:15:25.114Z,48.13
2018-11-29T06:17:54.089Z,48.27
2018-11-29T06:20:23.140Z,52.10
2018-11-29T06:22:52.116Z,52.10
2018-11-29T06:25:21.125Z,47.53
2018-11-29T06:27:50.085Z,54.77
2018-11-29T06:30:22.549Z,56.17
2018-11-29T06:32:52.486Z,44.77
2018-11-29T06:35:21.325Z,58.70
2018-11-29T06:37:50.306Z,51.37
2018-11-29T06:40:19.241Z,50.70
2018-11-29T06:42:48.198Z,50.73
2018-11-29T06:45:18.258Z,52.30
2018-11-29T06:47:47.881Z,55.27
2018-11-29T06:50:16.821Z,57.33
2018-11-29T06:52:46.794Z,51.87
2018-11-29T06:55:22.631Z,47.13
2018-11-29T06:57:52.122Z,51.20
2018-11-29T07:00:27.952Z,45.43
2018-11-29T07:02:56.914Z,42.70
2018-11-29T07:05:25.860Z,46.70
2018-11-29T07:07:54.809Z,54.73
2018-11-29T07:10:29.014Z,51.27
2018-11-29T07:12:57.961Z,47.87
2018-11-29T07:15:26.961Z,45.90
2018-11-29T07:17:56.026Z,54.80
2018-11-29T07:20:25.002Z,44.67
2018-11-29T07:22:55.217Z,49.10
2018-11-29T07:25:24.299Z,48.67
2018-11-29T07:27:53.318Z,49.10
2018-11-29T07:30:22.466Z,50.03
2018-11-29T07:32:51.541Z,45.87
2018-11-29T07:35:20.539Z,53.97
2018-11-29T07:37:49.487Z,56.63
2018-11-29T07:40:19.588Z,46.77
2018-11-29T07:42:51.013Z,52.27
2018-11-29T07:45:20.631Z,55.27
2018-11-29T07:47:49.614Z,49.60
2018-11-29T07:50:23.676Z,56.73
2018-11-29T07:52:52.704Z,46.87
2018-11-29T07:55:22.206Z,53.50
2018-11-29T07:57:52.852Z,50.33
2018-11-29T08:00:21.854Z,50.30
2018-11-29T08:02:50.835Z,52.57
2018-11-29T08:05:19.859Z,42.87
2018-11-29T08:07:49.036Z,51.40
2018-11-29T08:10:18.836Z,49.43
2018-11-29T08:12:47.987Z,39.63
2018-11-29T08:15:18.245Z,44.10
2018-11-29T08:17:47.210Z,45.87
2018-11-29T08:20:18.338Z,44.03
2018-11-29T08:22:47.276Z,49.03
2018-11-29T08:25:16.251Z,49.27
2018-11-29T08:27:45.181Z,51.40
2018-11-29T08:30:15.113Z,42.87
2018-11-29T08:32:44.908Z,43.53
2018-11-29T08:35:14.745Z,38.23
2018-11-29T08:37:44.762Z,44.17
2018-11-29T08:40:16.008Z,41.37
2018-11-29T08:42:44.979Z,41.77
2018-11-29T08:45:13.940Z,33.33
2018-11-29T08:47:42.893Z,50.00
2018-11-29T08:50:12.770Z,44.40
2018-11-29T08:52:42.695Z,41.03
2018-11-29T08:55:13.169Z,34.80
2018-11-29T08:57:42.113Z,39.00
2018-11-29T09:00:14.870Z,22.40
2018-11-29T09:02:43.905Z,47.23
2018-11-29T09:05:13.727Z,47.17
2018-11-29T09:07:43.515Z,30.03
2018-11-29T09:10:14.570Z,43.33
2018-11-29T09:12:43.493Z,42.70
2018-11-29T09:15:15.220Z,44.10
2018-11-29T09:17:44.261Z,45.50
2018-11-29T09:20:21.771Z,39.60
2018-11-29T09:22:50.714Z,49.20
2018-11-29T09:25:20.713Z,41.63
2018-11-29T09:27:49.694Z,44.67
2018-11-29T09:30:19.648Z,34.33
2018-11-29T09:32:49.525Z,42.40
2018-11-29T09:35:18.951Z,52.00
2018-11-29T09:37:47.907Z,41.37
2018-11-29T09:40:17.661Z,36.83
2018-11-29T09:42:46.786Z,43.73
2018-11-29T09:45:16.891Z,39.77
2018-11-29T09:47:47.822Z,37.10
2018-11-29T09:50:17.392Z,37.50
2018-11-29T09:52:46.366Z,43.43
2018-11-29T09:55:16.194Z,44.87
2018-11-29T09:57:45.845Z,49.13
2018-11-29T10:00:31.094Z,33.70
2018-11-29T10:03:06.431Z,41.70
2018-11-29T10:05:35.466Z,44.77
2018-11-29T10:08:11.543Z,35.57
2018-11-29T10:10:33.749Z,40.77
2018-11-29T10:13:02.823Z,42.80
2018-11-29T10:15:31.788Z,37.13
2018-11-29T10:18:00.758Z,45.73
2018-11-29T10:20:29.695Z,43.63
2018-11-29T10:22:58.639Z,38.93
2018-11-29T10:25:27.580Z,39.17
2018-11-29T10:28:02.640Z,44.90
2018-11-29T10:30:35.709Z,40.17
2018-11-29T10:33:04.661Z,41.90
2018-11-29T10:35:33.637Z,44.27
2018-11-29T10:38:02.632Z,43.67
2018-11-29T10:40:38.174Z,40.77
2018-11-29T10:43:07.141Z,39.77
2018-11-29T10:45:36.119Z,37.67
2018-11-29T10:48:06.540Z,42.40
2018-11-29T10:50:35.490Z,36.90
2018-11-29T10:53:04.535Z,29.80
2018-11-29T10:55:33.464Z,40.20
2018-11-29T10:58:02.418Z,41.87
2018-11-29T11:00:36.728Z,35.73
2018-11-29T11:03:12.144Z,31.73
2018-11-29T11:05:41.075Z,41.00
2018-11-29T11:08:10.105Z,35.63
2018-11-29T11:10:39.875Z,28.83
2018-11-29T11:13:08.848Z,34.37
2018-11-29T11:15:38.367Z,35.20
2018-11-29T11:18:08.401Z,29.10
2018-11-29T11:20:37.343Z,35.60
2018-11-29T11:23:06.484Z,33.40
2018-11-29T11:25:35.408Z,34.03
2018-11-29T11:28:05.319Z,34.33
2018-11-29T11:30:34.310Z,37.53
2018-11-29T11:33:03.291Z,36.40
2018-11-29T11:35:32.364Z,31.20
2018-11-29T11:38:01.336Z,29.83
2018-11-29T11:40:30.293Z,26.80
2018-11-29T11:42:59.262Z,30.77
2018-11-29T11:45:28.176Z,25.00
2018-11-29T11:48:02.992Z,35.63
2018-11-29T11:50:26.214Z,31.93
2018-11-29T11:52:55.768Z,33.87
2018-11-29T11:55:30.020Z,30.87
2018-11-29T11:57:53.751Z,33.80
2018-11-29T12:00:23.827Z,34.03
2018-11-29T12:02:54.169Z,31.70
2018-11-29T12:05:23.123Z,32.00
2018-11-29T12:07:52.106Z,34.63
2018-11-29T12:10:21.085Z,33.70
2018-11-29T12:12:50.089Z,44.30
2018-11-29T12:15:19.075Z,27.73
2018-11-29T12:17:48.249Z,34.17
2018-11-29T12:20:19.084Z,30.10
2018-11-29T12:22:48.051Z,28.77
2018-11-29T12:25:18.995Z,34.07
2018-11-29T12:27:48.022Z,31.73
2018-11-29T12:30:24.136Z,30.33
2018-11-29T12:32:54.593Z,26.80
2018-11-29T12:35:23.565Z,33.37
2018-11-29T12:37:53.246Z,22.97
2018-11-29T12:40:21.493Z,30.40
2018-11-29T12:42:54.669Z,27.77
2018-11-29T12:45:23.640Z,27.67
2018-11-29T12:47:52.626Z,32.67
2018-11-29T12:50:23.771Z,25.43
2018-11-29T12:52:52.839Z,21.63
2018-11-29T12:55:22.978Z,32.07
2018-11-29T12:58:04.582Z,27.30
2018-11-29T13:00:22.557Z,29.33
2018-11-29T13:02:53.811Z,24.70
2018-11-29T13:05:22.695Z,27.73
2018-11-29T13:07:52.084Z,30.80
2018-11-29T13:10:25.066Z,26.97
2018-11-29T13:12:54.358Z,42.93
2018-11-29T13:15:29.578Z,28.67
2018-11-29T13:18:00.322Z,28.93
2018-11-29T13:20:32.453Z,27.93
2018-11-29T13:22:58.302Z,28.50
2018-11-29T13:25:28.006Z,30.43
2018-11-29T13:27:56.994Z,24.20
2018-11-29T13:30:25.986Z,23.70
2018-11-29T13:32:55.908Z,23.33
2018-11-29T13:35:32.131Z,25.77
2018-11-29T13:38:04.694Z,24.43
2018-11-29T13:40:33.619Z,29.47
2018-11-29T13:43:02.560Z,24.20
2018-11-29T13:45:31.550Z,26.33
2018-11-29T13:48:00.498Z,23.60
2018-11-29T13:50:29.503Z,32.57
2018-11-29T13:52:58.447Z,27.90
2018-11-29T13:55:27.470Z,22.57
2018-11-29T13:57:56.405Z,23.77
2018-11-29T14:00:25.363Z,22.73
2018-11-29T14:02:56.908Z,23.73
2018-11-29T14:05:25.901Z,24.60
2018-11-29T14:07:54.846Z,30.93
2018-11-29T14:10:24.614Z,25.53
2018-11-29T14:12:54.676Z,24.60
2018-11-29T14:15:25.823Z,26.87
2018-11-29T14:17:54.828Z,25.53
2018-11-29T14:20:23.803Z,28.00
2018-11-29T14:22:52.752Z,22.37
2018-11-29T14:25:21.744Z,24.37
2018-11-29T14:27:55.925Z,24.33
2018-11-29T14:30:26.845Z,23.20
2018-11-29T14:32:56.946Z,18.83
2018-11-29T14:35:26.083Z,25.43
2018-11-29T14:37:55.075Z,26.17
2018-11-29T14:40:26.044Z,21.27
2018-11-29T14:42:55.010Z,20.87
2018-11-29T14:45:25.005Z,23.23
2018-11-29T14:47:54.140Z,24.53
2018-11-29T14:50:26.594Z,27.17
2018-11-29T14:52:55.555Z,22.33
2018-11-29T14:55:24.554Z,25.20
2018-11-29T14:57:53.497Z,20.13
2018-11-29T15:00:22.461Z,17.40
2018-11-29T15:02:51.424Z,24.67
2018-11-29T15:05:22.896Z,22.83
2018-11-29T15:07:51.942Z,25.03
2018-11-29T15:10:20.898Z,19.40
2018-11-29T15:12:49.863Z,20.10
2018-11-29T15:15:19.401Z,22.23
2018-11-29T15:17:49.316Z,22.20
2018-11-29T15:20:29.760Z,19.30
2018-11-29T15:22:58.751Z,19.80
2018-11-29T15:25:28.867Z,19.80
2018-11-29T15:27:59.294Z,21.40
2018-11-29T15:30:28.844Z,17.40
2018-11-29T15:32:57.796Z,20.60
2018-11-29T15:35:26.817Z,23.87
2018-11-29T15:37:56.915Z,17.90
2018-11-29T15:40:26.107Z,21.20
2018-11-29T15:42:55.044Z,19.00
2018-11-29T15:45:26.137Z,19.07
2018-11-29T15:47:55.232Z,24.33
2018-11-29T15:50:24.207Z,18.60
2018-11-29T15:52:53.199Z,23.37
2018-11-29T15:55:22.972Z,22.70
2018-11-29T15:57:53.450Z,23.60
2018-11-29T16:00:24.743Z,22.20
2018-11-29T16:02:54.537Z,17.17
2018-11-29T16:05:24.215Z,18.63
2018-11-29T16:07:53.161Z,14.73
2018-11-29T16:10:23.235Z,21.10
2018-11-29T16:12:52.216Z,19.67
2018-11-29T16:15:21.544Z,19.70
2018-11-29T16:17:51.521Z,18.40
2018-11-29T16:20:23.644Z,20.03
2018-11-29T16:22:52.583Z,20.50
2018-11-29T16:25:21.558Z,19.23
2018-11-29T16:27:50.497Z,18.70
2018-11-29T16:30:30.446Z,20.73
2018-11-29T16:33:03.099Z,22.33
2018-11-29T16:35:32.051Z,20.40
2018-11-29T16:38:00.986Z,20.23
2018-11-29T16:40:29.958Z,19.23
2018-11-29T16:42:58.936Z,16.73
2018-11-29T16:45:27.926Z,20.33
2018-11-29T16:47:56.907Z,17.33
2018-11-29T16:50:26.013Z,13.67
2018-11-29T16:52:54.966Z,13.90
2018-11-29T16:55:23.946Z,17.67
2018-11-29T16:57:54.687Z,14.97
2018-11-29T17:00:23.922Z,20.60
2018-11-29T17:02:52.894Z,19.40
2018-11-29T17:05:21.887Z,19.13
2018-11-29T17:07:50.829Z,16.97
2018-11-29T17:10:21.170Z,15.63
2018-11-29T17:12:53.583Z,16.27
2018-11-29T17:15:22.507Z,15.20
2018-11-29T17:17:51.542Z,21.63
2018-11-29T17:20:20.942Z,20.03
2018-11-29T17:22:50.793Z,20.40
2018-11-29T17:25:19.809Z,21.53
2018-11-29T17:27:48.791Z,14.80
2018-11-29T17:30:21.737Z,17.73
2018-11-29T17:32:53.105Z,15.97
2018-11-29T17:35:22.180Z,15.60
2018-11-29T17:37:51.414Z,20.63
2018-11-29T17:40:21.158Z,14.27
2018-11-29T17:42:51.094Z,14.83
2018-11-29T17:45:23.267Z,19.63
2018-11-29T17:47:53.726Z,16.67
2018-11-29T17:50:24.021Z,17.50
2018-11-29T17:52:53.010Z,13.73
2018-11-29T17:55:21.990Z,13.77
2018-11-29T17:57:50.986Z,12.77
2018-11-29T18:00:21.271Z,14.60
2018-11-29T18:02:50.258Z,18.80
2018-11-29T18:05:19.232Z,16.90
2018-11-29T18:07:48.230Z,17.20
2018-11-29T18:10:22.256Z,19.40
2018-11-29T18:12:53.684Z,21.80
2018-11-29T18:15:25.121Z,22.20
2018-11-29T18:17:54.134Z,27.27
2018-11-29T18:20:23.516Z,17.47
2018-11-29T18:22:52.969Z,19.67
2018-11-29T18:25:21.951Z,17.73
2018-11-29T18:27:52.075Z,18.13
2018-11-29T18:30:21.962Z,15.67
2018-11-29T18:32:52.410Z,13.90
2018-11-29T18:35:21.484Z,15.97
2018-11-29T18:37:50.565Z,15.20
2018-11-29T18:40:20.734Z,14.40
2018-11-29T18:42:56.968Z,16.57
2018-11-29T18:45:26.086Z,16.00
2018-11-29T18:47:55.511Z,18.90
2018-11-29T18:50:26.415Z,20.17
2018-11-29T18:52:55.482Z,17.90
2018-11-29T18:55:26.082Z,18.30
2018-11-29T18:57:56.433Z,13.80
2018-11-29T19:00:29.494Z,17.27
2018-11-29T19:02:58.589Z,16.60
2018-11-29T19:05:27.627Z,12.90
2018-11-29T19:07:56.710Z,15.80
2018-11-29T19:10:25.718Z,14.57
2018-11-29T19:13:03.994Z,21.73
2018-11-29T19:15:33.033Z,13.80
2018-11-29T19:18:02.087Z,14.60
2018-11-29T19:20:31.146Z,13.40
2018-11-29T19:23:00.187Z,15.53
2018-11-29T19:25:29.255Z,13.20
2018-11-29T19:27:58.286Z,15.03
2018-11-29T19:30:30.231Z,13.27
2018-11-29T19:33:19.165Z,17.80
2018-11-29T19:35:49.276Z,12.73
2018-11-29T19:38:18.399Z,17.53
2018-11-29T19:40:47.489Z,14.00
2018-11-29T19:43:16.638Z,13.00
2018-11-29T19:45:45.665Z,17.73
2018-11-29T19:48:14.799Z,14.37
2018-11-29T19:50:43.826Z,12.90
2018-11-29T19:53:18.299Z,17.33
2018-11-29T19:55:47.888Z,16.13
2018-11-29T19:58:16.975Z,15.50
2018-11-29T20:00:46.759Z,8.83
2018-11-29T20:03:15.771Z,14.43
2018-11-29T20:05:44.776Z,11.77
2018-11-29T20:08:13.838Z,14.87
2018-11-29T20:10:42.941Z,14.10
2018-11-29T20:13:17.086Z,12.70
2018-11-29T20:15:49.066Z,14.03
2018-11-29T20:18:18.058Z,15.30
2018-11-29T20:20:47.619Z,10.50
2018-11-29T20:23:16.623Z,12.60
2018-11-29T20:25:46.366Z,15.77
2018-11-29T20:28:15.385Z,16.87
2018-11-29T20:30:44.432Z,10.90
2018-11-29T20:33:25.741Z,15.53
2018-11-29T20:35:57.874Z,16.20
2018-11-29T20:38:27.522Z,11.30
2018-11-29T20:40:56.546Z,13.53
2018-11-29T20:43:25.564Z,14.57
2018-11-29T20:45:55.446Z,11.40
2018-11-29T20:48:26.137Z,13.30
2018-11-29T20:50:56.142Z,19.17
2018-11-29T20:53:28.729Z,12.43
2018-11-29T20:55:57.799Z,11.13
2018-11-29T20:58:28.221Z,17.27
2018-11-29T21:00:57.263Z,10.83
2018-11-29T21:03:26.307Z,12.40
2018-11-29T21:05:55.354Z,12.17
2018-11-29T21:08:24.354Z,15.47
2018-11-29T21:10:53.463Z,13.30
2018-11-29T21:13:22.473Z,11.77
2018-11-29T21:15:51.539Z,14.67
2018-11-29T21:18:20.526Z,13.30
2018-11-29T21:20:49.561Z,12.20
2018-11-29T21:23:18.551Z,13.67
2018-11-29T21:25:47.620Z,12.07
2018-11-29T21:28:16.554Z,12.77
2018-11-29T21:30:45.540Z,14.93
2018-11-29T21:33:14.500Z,13.30
2018-11-29T21:35:43.489Z,14.10
2018-11-29T21:38:17.736Z,12.60
2018-11-29T21:40:56.360Z,9.60
2018-11-29T21:43:25.311Z,14.43
2018-11-29T21:45:54.261Z,15.70
2018-11-29T21:48:23.236Z,15.37
2018-11-29T21:50:52.194Z,15.23
2018-11-29T21:53:21.159Z,13.63
2018-11-29T21:55:50.157Z,10.40
2018-11-29T21:58:19.090Z,9.73
2018-11-29T22:00:48.041Z,15.43
2018-11-29T22:03:17.023Z,13.57
2018-11-29T22:05:45.991Z,11.60
2018-11-29T22:08:14.927Z,11.10
2018-11-29T22:10:44.620Z,12.17
2018-11-29T22:13:13.566Z,13.13
2018-11-29T22:15:42.567Z,13.77
2018-11-29T22:18:22.907Z,15.90
2018-11-29T22:20:54.922Z,12.83
2018-11-29T22:23:23.874Z,12.50
2018-11-29T22:25:53.616Z,12.70
2018-11-29T22:28:22.566Z,10.50
2018-11-29T22:30:51.510Z,9.87
2018-11-29T22:33:20.472Z,15.33
2018-11-29T22:35:49.474Z,10.60
2018-11-29T22:38:18.450Z,10.77
2018-11-29T22:40:47.423Z,12.40
2018-11-29T22:43:16.377Z,11.37
2018-11-29T22:45:45.375Z,9.83
2018-11-29T22:48:14.418Z,10.73
2018-11-29T22:50:43.380Z,14.70
2018-11-29T22:53:13.438Z,14.80
2018-11-29T22:55:42.456Z,10.50
2018-11-29T22:58:11.404Z,11.63
2018-11-29T23:00:45.620Z,13.77
2018-11-29T23:03:14.628Z,12.10
2018-11-29T23:05:43.604Z,17.00
2018-11-29T23:08:12.640Z,13.27
2018-11-29T23:10:41.612Z,12.53
2018-11-29T23:13:10.579Z,13.53
2018-11-29T23:15:39.565Z,13.43
2018-11-29T23:18:08.561Z,13.70
2018-11-29T23:20:37.541Z,13.30
2018-11-29T23:23:06.505Z,11.17
2018-11-29T23:25:35.713Z,10.50
2018-11-29T23:28:05.623Z,13.73
2018-11-29T23:30:34.598Z,16.20
2018-11-29T23:33:03.577Z,14.93
2018-11-29T23:35:32.530Z,11.67
2018-11-29T23:38:01.507Z,13.87
2018-11-29T23:40:30.434Z,12.30
2018-11-29T23:42:59.387Z,11.33
2018-11-29T23:45:28.352Z,11.80
2018-11-29T23:47:57.312Z,11.83
2018-11-29T23:50:26.290Z,13.37
2018-11-29T23:52:55.228Z,17.40
2018-11-29T23:55:24.183Z,11.37
2018-11-29T23:57:53.157Z,12.00
